sensor_id;sensor_type;location;lat;lon;timestamp;P1;durP1;ratioP1;P2;durP2;ratioP2
76667;SDS011;65585;51.166;16.922;2023-07-09T00:02:22;15.95;;;11.20;;
76667;SDS011;65585;51.166;16.922;2023-07-09T00:04:48;16.52;;;12.57;;
76667;SDS011;65585;51.166;16.922;2023-07-09T00:09:43;16.27;;;11.70;;
76667;SDS011;65585;51.166;16.922;2023-07-09T00:12:12;15.57;;;11.43;;
76667;SDS011;65585;51.166;16.922;2023-07-09T00:14:38;16.25;;;12.02;;
76667;SDS011;65585;51.166;16.922;2023-07-09T00:17:07;16.52;;;12.05;;
76667;SDS011;65585;51.166;16.922;2023-07-09T00:19:34;14.10;;;10.75;;
76667;SDS011;65585;51.166;16.922;2023-07-09T00:22:00;16.55;;;12.45;;
76667;SDS011;65585;51.166;16.922;2023-07-09T00:24:26;15.77;;;11.35;;
76667;SDS011;65585;51.166;16.922;2023-07-09T00:26:52;17.75;;;12.98;;
76667;SDS011;65585;51.166;16.922;2023-07-09T00:29:18;15.52;;;11.70;;
76667;SDS011;65585;51.166;16.922;2023-07-09T00:31:44;16.38;;;13.15;;
76667;SDS011;65585;51.166;16.922;2023-07-09T00:34:12;17.40;;;12.57;;
76667;SDS011;65585;51.166;16.922;2023-07-09T00:36:38;17.83;;;14.48;;
76667;SDS011;65585;51.166;16.922;2023-07-09T00:39:08;18.55;;;13.25;;
76667;SDS011;65585;51.166;16.922;2023-07-09T00:41:37;17.15;;;13.02;;
76667;SDS011;65585;51.166;16.922;2023-07-09T00:49:25;21.45;;;14.30;;
76667;SDS011;65585;51.166;16.922;2023-07-09T00:51:52;20.77;;;14.27;;
76667;SDS011;65585;51.166;16.922;2023-07-09T00:54:27;19.45;;;13.00;;
76667;SDS011;65585;51.166;16.922;2023-07-09T00:56:57;19.75;;;13.98;;
76667;SDS011;65585;51.166;16.922;2023-07-09T00:59:25;16.27;;;12.80;;
76667;SDS011;65585;51.166;16.922;2023-07-09T01:01:54;17.08;;;12.73;;
76667;SDS011;65585;51.166;16.922;2023-07-09T01:04:21;16.55;;;12.00;;
76667;SDS011;65585;51.166;16.922;2023-07-09T01:06:50;16.63;;;12.82;;
76667;SDS011;65585;51.166;16.922;2023-07-09T01:09:17;15.45;;;12.18;;
76667;SDS011;65585;51.166;16.922;2023-07-09T01:11:43;18.48;;;13.32;;
76667;SDS011;65585;51.166;16.922;2023-07-09T01:14:10;19.13;;;13.52;;
76667;SDS011;65585;51.166;16.922;2023-07-09T01:16:38;22.65;;;14.30;;
76667;SDS011;65585;51.166;16.922;2023-07-09T01:19:05;18.23;;;13.20;;
76667;SDS011;65585;51.166;16.922;2023-07-09T01:21:31;21.65;;;14.10;;
76667;SDS011;65585;51.166;16.922;2023-07-09T01:23:57;18.02;;;12.70;;
76667;SDS011;65585;51.166;16.922;2023-07-09T01:26:25;22.50;;;12.85;;
76667;SDS011;65585;51.166;16.922;2023-07-09T01:28:52;16.60;;;12.48;;
76667;SDS011;65585;51.166;16.922;2023-07-09T01:31:18;18.95;;;13.48;;
76667;SDS011;65585;51.166;16.922;2023-07-09T01:33:46;19.83;;;14.43;;
76667;SDS011;65585;51.166;16.922;2023-07-09T01:36:14;20.00;;;14.38;;
76667;SDS011;65585;51.166;16.922;2023-07-09T01:38:41;16.85;;;14.10;;
76667;SDS011;65585;51.166;16.922;2023-07-09T01:41:07;18.75;;;14.75;;
76667;SDS011;65585;51.166;16.922;2023-07-09T01:43:33;18.10;;;12.82;;
76667;SDS011;65585;51.166;16.922;2023-07-09T01:45:59;17.30;;;12.38;;
76667;SDS011;65585;51.166;16.922;2023-07-09T01:48:26;16.27;;;12.63;;
76667;SDS011;65585;51.166;16.922;2023-07-09T01:50:53;15.52;;;12.68;;
76667;SDS011;65585;51.166;16.922;2023-07-09T01:53:23;19.58;;;12.20;;
76667;SDS011;65585;51.166;16.922;2023-07-09T01:55:51;16.45;;;12.50;;
76667;SDS011;65585;51.166;16.922;2023-07-09T01:58:17;16.50;;;12.20;;
76667;SDS011;65585;51.166;16.922;2023-07-09T02:00:43;13.75;;;11.48;;
76667;SDS011;65585;51.166;16.922;2023-07-09T02:03:10;15.30;;;13.38;;
76667;SDS011;65585;51.166;16.922;2023-07-09T02:05:37;15.90;;;12.32;;
76667;SDS011;65585;51.166;16.922;2023-07-09T02:08:03;15.43;;;12.40;;
76667;SDS011;65585;51.166;16.922;2023-07-09T02:10:29;17.55;;;12.60;;
76667;SDS011;65585;51.166;16.922;2023-07-09T02:12:55;15.88;;;12.30;;
76667;SDS011;65585;51.166;16.922;2023-07-09T02:15:21;16.77;;;12.98;;
76667;SDS011;65585;51.166;16.922;2023-07-09T02:17:47;15.95;;;13.23;;
76667;SDS011;65585;51.166;16.922;2023-07-09T02:20:13;16.38;;;11.55;;
76667;SDS011;65585;51.166;16.922;2023-07-09T02:22:39;16.73;;;12.15;;
76667;SDS011;65585;51.166;16.922;2023-07-09T02:25:06;15.20;;;11.98;;
76667;SDS011;65585;51.166;16.922;2023-07-09T02:27:32;14.50;;;12.20;;
76667;SDS011;65585;51.166;16.922;2023-07-09T02:29:59;12.90;;;10.43;;
76667;SDS011;65585;51.166;16.922;2023-07-09T02:32:26;13.27;;;11.57;;
76667;SDS011;65585;51.166;16.922;2023-07-09T02:34:53;12.50;;;11.18;;
76667;SDS011;65585;51.166;16.922;2023-07-09T02:37:20;14.73;;;11.27;;
76667;SDS011;65585;51.166;16.922;2023-07-09T02:39:46;15.57;;;13.23;;
76667;SDS011;65585;51.166;16.922;2023-07-09T02:42:13;18.25;;;11.77;;
76667;SDS011;65585;51.166;16.922;2023-07-09T02:44:40;14.13;;;11.32;;
76667;SDS011;65585;51.166;16.922;2023-07-09T02:47:06;13.13;;;10.43;;
76667;SDS011;65585;51.166;16.922;2023-07-09T02:49:33;13.95;;;10.75;;
76667;SDS011;65585;51.166;16.922;2023-07-09T02:51:59;15.38;;;11.15;;
76667;SDS011;65585;51.166;16.922;2023-07-09T02:54:25;13.00;;;11.00;;
76667;SDS011;65585;51.166;16.922;2023-07-09T02:56:51;15.07;;;11.05;;
76667;SDS011;65585;51.166;16.922;2023-07-09T02:59:18;17.58;;;11.82;;
76667;SDS011;65585;51.166;16.922;2023-07-09T03:01:44;16.75;;;13.02;;
76667;SDS011;65585;51.166;16.922;2023-07-09T03:04:11;14.75;;;12.82;;
76667;SDS011;65585;51.166;16.922;2023-07-09T03:06:36;16.25;;;13.10;;
76667;SDS011;65585;51.166;16.922;2023-07-09T03:09:04;16.50;;;11.75;;
76667;SDS011;65585;51.166;16.922;2023-07-09T03:11:30;14.75;;;12.40;;
76667;SDS011;65585;51.166;16.922;2023-07-09T03:13:58;13.45;;;11.05;;
76667;SDS011;65585;51.166;16.922;2023-07-09T03:16:25;16.42;;;12.88;;
76667;SDS011;65585;51.166;16.922;2023-07-09T03:18:52;17.20;;;11.20;;
76667;SDS011;65585;51.166;16.922;2023-07-09T03:21:20;15.50;;;11.70;;
76667;SDS011;65585;51.166;16.922;2023-07-09T03:23:46;13.98;;;11.05;;
76667;SDS011;65585;51.166;16.922;2023-07-09T03:26:12;15.77;;;10.95;;
76667;SDS011;65585;51.166;16.922;2023-07-09T03:28:38;15.82;;;13.00;;
76667;SDS011;65585;51.166;16.922;2023-07-09T03:31:04;13.85;;;11.30;;
76667;SDS011;65585;51.166;16.922;2023-07-09T03:33:30;16.48;;;12.38;;
76667;SDS011;65585;51.166;16.922;2023-07-09T03:35:56;15.30;;;12.38;;
76667;SDS011;65585;51.166;16.922;2023-07-09T03:38:23;15.95;;;11.10;;
76667;SDS011;65585;51.166;16.922;2023-07-09T03:40:52;15.35;;;10.30;;
76667;SDS011;65585;51.166;16.922;2023-07-09T03:43:18;14.30;;;10.23;;
76667;SDS011;65585;51.166;16.922;2023-07-09T03:45:44;12.15;;;9.73;;
76667;SDS011;65585;51.166;16.922;2023-07-09T03:48:11;15.07;;;12.18;;
76667;SDS011;65585;51.166;16.922;2023-07-09T03:50:37;12.32;;;10.50;;
76667;SDS011;65585;51.166;16.922;2023-07-09T03:53:04;14.70;;;13.10;;
76667;SDS011;65585;51.166;16.922;2023-07-09T03:55:31;14.05;;;11.70;;
76667;SDS011;65585;51.166;16.922;2023-07-09T03:57:58;12.93;;;10.57;;
76667;SDS011;65585;51.166;16.922;2023-07-09T04:00:24;14.40;;;10.95;;
76667;SDS011;65585;51.166;16.922;2023-07-09T04:02:52;12.98;;;10.85;;
76667;SDS011;65585;51.166;16.922;2023-07-09T04:05:18;13.70;;;10.00;;
76667;SDS011;65585;51.166;16.922;2023-07-09T04:07:45;14.57;;;10.95;;
76667;SDS011;65585;51.166;16.922;2023-07-09T04:10:10;15.93;;;10.38;;
76667;SDS011;65585;51.166;16.922;2023-07-09T04:12:37;12.95;;;10.30;;
76667;SDS011;65585;51.166;16.922;2023-07-09T04:15:03;13.27;;;10.07;;
76667;SDS011;65585;51.166;16.922;2023-07-09T04:17:29;10.52;;;9.40;;
76667;SDS011;65585;51.166;16.922;2023-07-09T04:19:55;13.00;;;10.75;;
76667;SDS011;65585;51.166;16.922;2023-07-09T04:22:21;11.75;;;10.35;;
76667;SDS011;65585;51.166;16.922;2023-07-09T04:24:47;16.10;;;11.10;;
76667;SDS011;65585;51.166;16.922;2023-07-09T04:27:13;13.48;;;10.73;;
76667;SDS011;65585;51.166;16.922;2023-07-09T04:29:39;12.52;;;10.32;;
76667;SDS011;65585;51.166;16.922;2023-07-09T04:32:06;13.82;;;9.60;;
76667;SDS011;65585;51.166;16.922;2023-07-09T04:34:32;12.45;;;11.15;;
76667;SDS011;65585;51.166;16.922;2023-07-09T04:36:59;12.43;;;10.23;;
76667;SDS011;65585;51.166;16.922;2023-07-09T04:39:24;14.88;;;11.25;;
76667;SDS011;65585;51.166;16.922;2023-07-09T04:41:51;12.38;;;10.55;;
76667;SDS011;65585;51.166;16.922;2023-07-09T04:44:16;14.65;;;10.13;;
76667;SDS011;65585;51.166;16.922;2023-07-09T04:46:43;17.10;;;11.10;;
76667;SDS011;65585;51.166;16.922;2023-07-09T04:49:08;13.63;;;10.05;;
76667;SDS011;65585;51.166;16.922;2023-07-09T04:51:38;12.52;;;9.60;;
76667;SDS011;65585;51.166;16.922;2023-07-09T04:54:04;13.80;;;9.93;;
76667;SDS011;65585;51.166;16.922;2023-07-09T04:56:30;14.07;;;10.88;;
76667;SDS011;65585;51.166;16.922;2023-07-09T04:58:56;12.38;;;11.05;;
76667;SDS011;65585;51.166;16.922;2023-07-09T05:01:22;13.43;;;9.75;;
76667;SDS011;65585;51.166;16.922;2023-07-09T05:03:48;10.63;;;9.52;;
76667;SDS011;65585;51.166;16.922;2023-07-09T05:06:15;12.73;;;9.00;;
76667;SDS011;65585;51.166;16.922;2023-07-09T05:08:40;12.13;;;9.73;;
76667;SDS011;65585;51.166;16.922;2023-07-09T05:11:07;12.73;;;9.48;;
76667;SDS011;65585;51.166;16.922;2023-07-09T05:13:33;15.52;;;10.80;;
76667;SDS011;65585;51.166;16.922;2023-07-09T05:15:59;10.75;;;8.82;;
76667;SDS011;65585;51.166;16.922;2023-07-09T05:18:25;18.85;;;9.15;;
76667;SDS011;65585;51.166;16.922;2023-07-09T05:20:51;10.60;;;8.43;;
76667;SDS011;65585;51.166;16.922;2023-07-09T05:23:17;11.20;;;9.60;;
76667;SDS011;65585;51.166;16.922;2023-07-09T05:25:43;13.85;;;9.45;;
76667;SDS011;65585;51.166;16.922;2023-07-09T05:28:09;14.77;;;10.07;;
76667;SDS011;65585;51.166;16.922;2023-07-09T05:30:35;11.68;;;9.30;;
76667;SDS011;65585;51.166;16.922;2023-07-09T05:33:01;12.80;;;10.30;;
76667;SDS011;65585;51.166;16.922;2023-07-09T05:35:28;12.52;;;10.27;;
76667;SDS011;65585;51.166;16.922;2023-07-09T05:37:53;12.77;;;9.30;;
76667;SDS011;65585;51.166;16.922;2023-07-09T05:40:20;13.30;;;9.40;;
76667;SDS011;65585;51.166;16.922;2023-07-09T05:42:48;12.95;;;9.07;;
76667;SDS011;65585;51.166;16.922;2023-07-09T05:45:14;13.30;;;10.10;;
76667;SDS011;65585;51.166;16.922;2023-07-09T05:47:41;13.35;;;9.95;;
76667;SDS011;65585;51.166;16.922;2023-07-09T05:50:07;10.40;;;9.10;;
76667;SDS011;65585;51.166;16.922;2023-07-09T05:52:33;14.88;;;9.07;;
76667;SDS011;65585;51.166;16.922;2023-07-09T05:55:00;13.77;;;9.07;;
76667;SDS011;65585;51.166;16.922;2023-07-09T05:57:26;12.38;;;9.30;;
76667;SDS011;65585;51.166;16.922;2023-07-09T05:59:52;12.30;;;9.50;;
76667;SDS011;65585;51.166;16.922;2023-07-09T06:02:18;11.55;;;8.90;;
76667;SDS011;65585;51.166;16.922;2023-07-09T06:04:45;10.50;;;8.65;;
76667;SDS011;65585;51.166;16.922;2023-07-09T06:07:12;9.75;;;8.80;;
76667;SDS011;65585;51.166;16.922;2023-07-09T06:09:39;11.85;;;8.57;;
76667;SDS011;65585;51.166;16.922;2023-07-09T06:12:06;12.35;;;9.32;;
76667;SDS011;65585;51.166;16.922;2023-07-09T06:14:32;10.50;;;8.80;;
76667;SDS011;65585;51.166;16.922;2023-07-09T06:16:59;12.00;;;8.80;;
76667;SDS011;65585;51.166;16.922;2023-07-09T06:19:26;10.75;;;8.75;;
76667;SDS011;65585;51.166;16.922;2023-07-09T06:21:52;11.05;;;8.55;;
76667;SDS011;65585;51.166;16.922;2023-07-09T06:24:18;14.65;;;10.15;;
76667;SDS011;65585;51.166;16.922;2023-07-09T06:26:44;11.93;;;8.60;;
76667;SDS011;65585;51.166;16.922;2023-07-09T06:29:10;11.02;;;8.15;;
76667;SDS011;65585;51.166;16.922;2023-07-09T06:31:36;10.90;;;9.65;;
76667;SDS011;65585;51.166;16.922;2023-07-09T06:34:03;9.90;;;7.82;;
76667;SDS011;65585;51.166;16.922;2023-07-09T06:36:29;13.48;;;9.27;;
76667;SDS011;65585;51.166;16.922;2023-07-09T06:38:55;10.43;;;8.00;;
76667;SDS011;65585;51.166;16.922;2023-07-09T06:41:21;13.13;;;7.90;;
76667;SDS011;65585;51.166;16.922;2023-07-09T06:43:47;9.63;;;7.82;;
76667;SDS011;65585;51.166;16.922;2023-07-09T06:46:13;11.02;;;9.60;;
76667;SDS011;65585;51.166;16.922;2023-07-09T06:48:40;9.77;;;7.93;;
76667;SDS011;65585;51.166;16.922;2023-07-09T06:51:05;11.77;;;7.50;;
76667;SDS011;65585;51.166;16.922;2023-07-09T06:53:32;11.27;;;7.55;;
76667;SDS011;65585;51.166;16.922;2023-07-09T06:55:58;9.68;;;7.95;;
76667;SDS011;65585;51.166;16.922;2023-07-09T06:58:26;10.38;;;8.70;;
76667;SDS011;65585;51.166;16.922;2023-07-09T07:00:53;9.80;;;7.05;;
76667;SDS011;65585;51.166;16.922;2023-07-09T07:03:20;10.98;;;7.07;;
76667;SDS011;65585;51.166;16.922;2023-07-09T07:05:46;10.38;;;7.15;;
76667;SDS011;65585;51.166;16.922;2023-07-09T07:08:15;9.40;;;7.70;;
76667;SDS011;65585;51.166;16.922;2023-07-09T07:10:41;9.27;;;7.25;;
76667;SDS011;65585;51.166;16.922;2023-07-09T07:15:36;10.45;;;7.28;;
76667;SDS011;65585;51.166;16.922;2023-07-09T07:18:02;9.23;;;7.50;;
76667;SDS011;65585;51.166;16.922;2023-07-09T07:20:29;10.57;;;7.22;;
76667;SDS011;65585;51.166;16.922;2023-07-09T07:22:56;8.15;;;7.20;;
76667;SDS011;65585;51.166;16.922;2023-07-09T07:25:22;10.27;;;8.00;;
76667;SDS011;65585;51.166;16.922;2023-07-09T07:27:49;7.90;;;6.25;;
76667;SDS011;65585;51.166;16.922;2023-07-09T07:30:15;7.32;;;6.25;;
76667;SDS011;65585;51.166;16.922;2023-07-09T07:32:43;9.38;;;7.00;;
76667;SDS011;65585;51.166;16.922;2023-07-09T07:35:09;10.00;;;7.15;;
76667;SDS011;65585;51.166;16.922;2023-07-09T07:37:36;9.10;;;7.60;;
76667;SDS011;65585;51.166;16.922;2023-07-09T07:40:02;9.85;;;6.65;;
76667;SDS011;65585;51.166;16.922;2023-07-09T07:42:30;8.82;;;6.40;;
76667;SDS011;65585;51.166;16.922;2023-07-09T07:44:56;11.20;;;6.03;;
76667;SDS011;65585;51.166;16.922;2023-07-09T07:47:22;7.28;;;6.13;;
76667;SDS011;65585;51.166;16.922;2023-07-09T07:49:48;10.65;;;6.55;;
76667;SDS011;65585;51.166;16.922;2023-07-09T07:52:14;8.52;;;6.40;;
76667;SDS011;65585;51.166;16.922;2023-07-09T07:54:40;8.02;;;6.05;;
76667;SDS011;65585;51.166;16.922;2023-07-09T07:57:06;7.10;;;6.40;;
76667;SDS011;65585;51.166;16.922;2023-07-09T07:59:35;7.50;;;6.50;;
76667;SDS011;65585;51.166;16.922;2023-07-09T08:02:02;7.90;;;5.70;;
76667;SDS011;65585;51.166;16.922;2023-07-09T08:04:28;7.22;;;5.80;;
76667;SDS011;65585;51.166;16.922;2023-07-09T08:06:54;9.38;;;5.78;;
76667;SDS011;65585;51.166;16.922;2023-07-09T08:11:47;8.70;;;6.78;;
76667;SDS011;65585;51.166;16.922;2023-07-09T08:14:14;7.25;;;6.40;;
76667;SDS011;65585;51.166;16.922;2023-07-09T08:16:41;7.15;;;6.45;;
76667;SDS011;65585;51.166;16.922;2023-07-09T08:19:07;10.05;;;6.68;;
76667;SDS011;65585;51.166;16.922;2023-07-09T08:21:33;6.45;;;5.82;;
76667;SDS011;65585;51.166;16.922;2023-07-09T08:23:59;7.97;;;5.95;;
76667;SDS011;65585;51.166;16.922;2023-07-09T08:26:25;8.82;;;6.07;;
76667;SDS011;65585;51.166;16.922;2023-07-09T08:28:51;8.07;;;6.38;;
76667;SDS011;65585;51.166;16.922;2023-07-09T08:31:17;9.27;;;6.85;;
76667;SDS011;65585;51.166;16.922;2023-07-09T08:33:43;6.75;;;5.78;;
76667;SDS011;65585;51.166;16.922;2023-07-09T08:36:10;6.85;;;5.85;;
76667;SDS011;65585;51.166;16.922;2023-07-09T08:38:36;7.38;;;5.90;;
76667;SDS011;65585;51.166;16.922;2023-07-09T08:41:15;7.43;;;5.32;;
76667;SDS011;65585;51.166;16.922;2023-07-09T08:48:54;5.45;;;4.88;;
76667;SDS011;65585;51.166;16.922;2023-07-09T08:51:35;6.60;;;5.18;;
76667;SDS011;65585;51.166;16.922;2023-07-09T08:54:02;8.25;;;4.90;;
76667;SDS011;65585;51.166;16.922;2023-07-09T08:56:29;6.07;;;5.30;;
76667;SDS011;65585;51.166;16.922;2023-07-09T08:58:56;6.85;;;4.70;;
76667;SDS011;65585;51.166;16.922;2023-07-09T09:01:26;9.27;;;5.40;;
76667;SDS011;65585;51.166;16.922;2023-07-09T09:03:53;6.25;;;5.60;;
76667;SDS011;65585;51.166;16.922;2023-07-09T09:06:22;6.68;;;5.13;;
76667;SDS011;65585;51.166;16.922;2023-07-09T09:16:54;5.97;;;4.93;;
76667;SDS011;65585;51.166;16.922;2023-07-09T09:19:29;5.20;;;4.70;;
76667;SDS011;65585;51.166;16.922;2023-07-09T09:22:04;6.03;;;4.38;;
76667;SDS011;65585;51.166;16.922;2023-07-09T09:24:38;5.10;;;4.60;;
76667;SDS011;65585;51.166;16.922;2023-07-09T09:27:07;6.35;;;5.00;;
76667;SDS011;65585;51.166;16.922;2023-07-09T09:29:33;6.45;;;4.30;;
76667;SDS011;65585;51.166;16.922;2023-07-09T09:31:59;5.28;;;4.00;;
76667;SDS011;65585;51.166;16.922;2023-07-09T09:34:29;4.88;;;4.00;;
76667;SDS011;65585;51.166;16.922;2023-07-09T09:36:57;4.95;;;3.85;;
76667;SDS011;65585;51.166;16.922;2023-07-09T09:39:23;4.93;;;3.90;;
76667;SDS011;65585;51.166;16.922;2023-07-09T09:41:52;5.43;;;3.50;;
76667;SDS011;65585;51.166;16.922;2023-07-09T09:44:19;5.85;;;4.15;;
76667;SDS011;65585;51.166;16.922;2023-07-09T09:46:47;4.75;;;4.18;;
76667;SDS011;65585;51.166;16.922;2023-07-09T09:49:13;4.95;;;4.10;;
76667;SDS011;65585;51.166;16.922;2023-07-09T09:51:40;5.45;;;3.60;;
76667;SDS011;65585;51.166;16.922;2023-07-09T09:56:35;7.30;;;4.13;;
76667;SDS011;65585;51.166;16.922;2023-07-09T09:59:02;4.85;;;3.95;;
76667;SDS011;65585;51.166;16.922;2023-07-09T10:01:30;5.75;;;3.80;;
76667;SDS011;65585;51.166;16.922;2023-07-09T10:03:57;5.70;;;4.10;;
76667;SDS011;65585;51.166;16.922;2023-07-09T10:11:31;5.10;;;4.03;;
76667;SDS011;65585;51.166;16.922;2023-07-09T10:14:00;4.72;;;3.78;;
76667;SDS011;65585;51.166;16.922;2023-07-09T10:16:34;4.35;;;3.85;;
76667;SDS011;65585;51.166;16.922;2023-07-09T10:19:12;5.65;;;4.25;;
76667;SDS011;65585;51.166;16.922;2023-07-09T10:21:44;4.50;;;3.67;;
76667;SDS011;65585;51.166;16.922;2023-07-09T10:26:48;4.80;;;4.07;;
76667;SDS011;65585;51.166;16.922;2023-07-09T10:29:23;4.78;;;4.32;;
76667;SDS011;65585;51.166;16.922;2023-07-09T10:37:08;5.22;;;4.28;;
76667;SDS011;65585;51.166;16.922;2023-07-09T10:39:45;5.68;;;4.20;;
76667;SDS011;65585;51.166;16.922;2023-07-09T10:42:59;4.65;;;4.05;;
76667;SDS011;65585;51.166;16.922;2023-07-09T10:45:01;4.82;;;4.25;;
76667;SDS011;65585;51.166;16.922;2023-07-09T10:47:35;9.65;;;4.13;;
76667;SDS011;65585;51.166;16.922;2023-07-09T10:50:02;6.10;;;4.15;;
76667;SDS011;65585;51.166;16.922;2023-07-09T10:52:32;4.30;;;3.80;;
76667;SDS011;65585;51.166;16.922;2023-07-09T10:57:30;5.53;;;4.05;;
76667;SDS011;65585;51.166;16.922;2023-07-09T10:59:59;5.28;;;4.75;;
76667;SDS011;65585;51.166;16.922;2023-07-09T11:02:30;6.25;;;5.07;;
76667;SDS011;65585;51.166;16.922;2023-07-09T11:04:59;7.72;;;4.75;;
76667;SDS011;65585;51.166;16.922;2023-07-09T11:07:36;5.30;;;4.80;;
76667;SDS011;65585;51.166;16.922;2023-07-09T11:10:05;4.78;;;4.38;;
76667;SDS011;65585;51.166;16.922;2023-07-09T11:12:38;5.05;;;4.40;;
76667;SDS011;65585;51.166;16.922;2023-07-09T11:15:06;5.85;;;4.85;;
76667;SDS011;65585;51.166;16.922;2023-07-09T11:17:37;5.45;;;4.03;;
76667;SDS011;65585;51.166;16.922;2023-07-09T11:20:15;6.28;;;4.72;;
76667;SDS011;65585;51.166;16.922;2023-07-09T11:22:50;5.65;;;5.00;;
76667;SDS011;65585;51.166;16.922;2023-07-09T11:25:26;6.88;;;4.65;;
76667;SDS011;65585;51.166;16.922;2023-07-09T11:28:00;5.80;;;4.72;;
76667;SDS011;65585;51.166;16.922;2023-07-09T11:30:28;7.35;;;4.97;;
76667;SDS011;65585;51.166;16.922;2023-07-09T11:32:59;5.85;;;4.28;;
76667;SDS011;65585;51.166;16.922;2023-07-09T11:35:26;5.55;;;4.25;;
76667;SDS011;65585;51.166;16.922;2023-07-09T11:37:56;5.10;;;4.60;;
76667;SDS011;65585;51.166;16.922;2023-07-09T11:40:24;7.28;;;5.28;;
76667;SDS011;65585;51.166;16.922;2023-07-09T11:42:57;6.75;;;4.60;;
76667;SDS011;65585;51.166;16.922;2023-07-09T11:45:31;4.90;;;4.50;;
76667;SDS011;65585;51.166;16.922;2023-07-09T11:50:41;7.30;;;4.70;;
76667;SDS011;65585;51.166;16.922;2023-07-09T11:55:43;6.53;;;5.00;;
76667;SDS011;65585;51.166;16.922;2023-07-09T11:58:14;5.43;;;4.32;;
76667;SDS011;65585;51.166;16.922;2023-07-09T12:00:43;4.97;;;4.47;;
76667;SDS011;65585;51.166;16.922;2023-07-09T12:05:46;5.00;;;4.50;;
76667;SDS011;65585;51.166;16.922;2023-07-09T12:08:14;5.97;;;4.60;;
76667;SDS011;65585;51.166;16.922;2023-07-09T12:10:41;4.57;;;4.05;;
76667;SDS011;65585;51.166;16.922;2023-07-09T12:13:11;5.15;;;4.38;;
76667;SDS011;65585;51.166;16.922;2023-07-09T12:15:38;4.75;;;4.15;;
76667;SDS011;65585;51.166;16.922;2023-07-09T12:18:10;5.53;;;4.65;;
76667;SDS011;65585;51.166;16.922;2023-07-09T12:20:36;5.05;;;4.53;;
76667;SDS011;65585;51.166;16.922;2023-07-09T12:23:10;4.85;;;4.35;;
76667;SDS011;65585;51.166;16.922;2023-07-09T12:25:36;5.57;;;5.00;;
76667;SDS011;65585;51.166;16.922;2023-07-09T12:30:32;5.70;;;4.63;;
76667;SDS011;65585;51.166;16.922;2023-07-09T12:32:58;4.80;;;4.30;;
76667;SDS011;65585;51.166;16.922;2023-07-09T12:35:24;5.43;;;4.13;;
76667;SDS011;65585;51.166;16.922;2023-07-09T12:37:55;7.32;;;4.07;;
76667;SDS011;65585;51.166;16.922;2023-07-09T12:40:29;6.38;;;4.55;;
76667;SDS011;65585;51.166;16.922;2023-07-09T12:45:23;4.45;;;4.05;;
76667;SDS011;65585;51.166;16.922;2023-07-09T12:47:49;4.78;;;4.30;;
76667;SDS011;65585;51.166;16.922;2023-07-09T12:52:46;43.85;;;6.45;;
76667;SDS011;65585;51.166;16.922;2023-07-09T12:55:20;5.35;;;4.75;;
76667;SDS011;65585;51.166;16.922;2023-07-09T12:57:46;6.28;;;4.38;;
76667;SDS011;65585;51.166;16.922;2023-07-09T13:00:16;9.10;;;4.20;;
76667;SDS011;65585;51.166;16.922;2023-07-09T13:02:43;7.78;;;4.38;;
76667;SDS011;65585;51.166;16.922;2023-07-09T13:05:20;5.55;;;4.90;;
76667;SDS011;65585;51.166;16.922;2023-07-09T13:07:49;4.97;;;4.47;;
76667;SDS011;65585;51.166;16.922;2023-07-09T13:10:17;4.72;;;4.30;;
76667;SDS011;65585;51.166;16.922;2023-07-09T13:12:50;5.05;;;4.40;;
76667;SDS011;65585;51.166;16.922;2023-07-09T13:17:58;5.32;;;4.82;;
76667;SDS011;65585;51.166;16.922;2023-07-09T13:20:26;5.68;;;4.82;;
76667;SDS011;65585;51.166;16.922;2023-07-09T13:22:52;5.65;;;3.85;;
76667;SDS011;65585;51.166;16.922;2023-07-09T13:25:18;4.85;;;4.40;;
76667;SDS011;65585;51.166;16.922;2023-07-09T13:27:44;4.60;;;3.95;;
76667;SDS011;65585;51.166;16.922;2023-07-09T13:30:11;5.93;;;4.70;;
76667;SDS011;65585;51.166;16.922;2023-07-09T13:32:38;7.40;;;4.35;;
76667;SDS011;65585;51.166;16.922;2023-07-09T13:35:14;5.13;;;4.13;;
76667;SDS011;65585;51.166;16.922;2023-07-09T13:37:43;6.82;;;4.10;;
76667;SDS011;65585;51.166;16.922;2023-07-09T13:40:12;5.22;;;4.60;;
76667;SDS011;65585;51.166;16.922;2023-07-09T13:42:40;5.10;;;4.60;;
76667;SDS011;65585;51.166;16.922;2023-07-09T13:45:18;5.28;;;4.55;;
76667;SDS011;65585;51.166;16.922;2023-07-09T13:47:45;7.57;;;4.70;;
76667;SDS011;65585;51.166;16.922;2023-07-09T13:50:11;5.65;;;4.70;;
76667;SDS011;65585;51.166;16.922;2023-07-09T13:52:37;5.10;;;4.28;;
76667;SDS011;65585;51.166;16.922;2023-07-09T13:55:03;6.22;;;3.90;;
76667;SDS011;65585;51.166;16.922;2023-07-09T13:57:30;4.88;;;4.45;;
76667;SDS011;65585;51.166;16.922;2023-07-09T13:59:56;6.65;;;4.20;;
76667;SDS011;65585;51.166;16.922;2023-07-09T14:02:25;6.30;;;4.78;;
76667;SDS011;65585;51.166;16.922;2023-07-09T14:04:57;4.75;;;4.00;;
76667;SDS011;65585;51.166;16.922;2023-07-09T14:07:27;8.82;;;4.05;;
76667;SDS011;65585;51.166;16.922;2023-07-09T14:09:53;5.95;;;4.80;;
76667;SDS011;65585;51.166;16.922;2023-07-09T14:14:50;8.63;;;4.00;;
76667;SDS011;65585;51.166;16.922;2023-07-09T14:17:17;5.90;;;4.78;;
76667;SDS011;65585;51.166;16.922;2023-07-09T14:19:43;4.35;;;3.95;;
76667;SDS011;65585;51.166;16.922;2023-07-09T14:22:18;5.22;;;4.10;;
76667;SDS011;65585;51.166;16.922;2023-07-09T14:24:45;4.75;;;4.18;;
76667;SDS011;65585;51.166;16.922;2023-07-09T14:27:14;4.63;;;4.20;;
76667;SDS011;65585;51.166;16.922;2023-07-09T14:29:40;4.63;;;4.22;;
76667;SDS011;65585;51.166;16.922;2023-07-09T14:32:10;4.70;;;4.30;;
76667;SDS011;65585;51.166;16.922;2023-07-09T14:34:47;8.68;;;4.55;;
76667;SDS011;65585;51.166;16.922;2023-07-09T14:37:13;4.80;;;4.28;;
76667;SDS011;65585;51.166;16.922;2023-07-09T14:39:39;6.15;;;4.53;;
76667;SDS011;65585;51.166;16.922;2023-07-09T14:42:08;5.82;;;4.35;;
76667;SDS011;65585;51.166;16.922;2023-07-09T14:44:35;7.53;;;4.07;;
76667;SDS011;65585;51.166;16.922;2023-07-09T14:47:01;6.18;;;4.00;;
76667;SDS011;65585;51.166;16.922;2023-07-09T14:49:28;4.93;;;3.78;;
76667;SDS011;65585;51.166;16.922;2023-07-09T14:51:54;4.55;;;3.67;;
76667;SDS011;65585;51.166;16.922;2023-07-09T14:56:47;4.97;;;4.47;;
76667;SDS011;65585;51.166;16.922;2023-07-09T14:59:13;6.35;;;3.78;;
76667;SDS011;65585;51.166;16.922;2023-07-09T15:01:40;6.93;;;4.20;;
76667;SDS011;65585;51.166;16.922;2023-07-09T15:04:13;5.13;;;4.28;;
76667;SDS011;65585;51.166;16.922;2023-07-09T15:06:49;4.90;;;3.92;;
76667;SDS011;65585;51.166;16.922;2023-07-09T15:11:46;6.82;;;4.22;;
76667;SDS011;65585;51.166;16.922;2023-07-09T15:14:14;5.25;;;4.00;;
76667;SDS011;65585;51.166;16.922;2023-07-09T15:16:41;5.50;;;4.00;;
76667;SDS011;65585;51.166;16.922;2023-07-09T15:19:13;4.78;;;4.28;;
76667;SDS011;65585;51.166;16.922;2023-07-09T15:21:40;4.43;;;3.97;;
76667;SDS011;65585;51.166;16.922;2023-07-09T15:24:15;5.10;;;4.28;;
76667;SDS011;65585;51.166;16.922;2023-07-09T15:26:43;5.18;;;4.68;;
76667;SDS011;65585;51.166;16.922;2023-07-09T15:29:13;5.10;;;4.60;;
76667;SDS011;65585;51.166;16.922;2023-07-09T15:31:40;5.65;;;4.82;;
76667;SDS011;65585;51.166;16.922;2023-07-09T15:34:05;6.78;;;4.97;;
76667;SDS011;65585;51.166;16.922;2023-07-09T15:36:32;5.40;;;4.90;;